Lynn Lake Airport

CYYL | YYL

Lynn Lake , Manitoba , Canada

Sunday, January 26th, 2020 | 18:34

Weather

CYYL 270000Z AUTO 18004KT 9SM OVC005 M08/M08 A3007 RMK SLP217

Charts

No Charts Available

Gates

No Gates Available

Runways

2 Available

Events

No events for this airport


New event